createdAt,value
2018-09-11T00:00:01.118Z,23.37
2018-09-11T00:00:33.260Z,23.36
2018-09-11T00:01:05.349Z,23.37
2018-09-11T00:01:37.672Z,23.35
2018-09-11T00:02:09.785Z,23.35
2018-09-11T00:02:41.979Z,23.35
2018-09-11T00:03:14.043Z,23.36
2018-09-11T00:03:46.145Z,23.35
2018-09-11T00:04:18.270Z,23.36
2018-09-11T00:04:50.366Z,23.35
2018-09-11T00:05:22.460Z,23.35
2018-09-11T00:05:54.654Z,23.35
2018-09-11T00:06:26.765Z,23.36
2018-09-11T00:06:58.895Z,23.34
2018-09-11T00:07:31.014Z,23.34
2018-09-11T00:08:03.103Z,23.35
2018-09-11T00:08:35.202Z,23.35
2018-09-11T00:09:07.489Z,23.34
2018-09-11T00:09:39.610Z,23.34
2018-09-11T00:10:11.795Z,23.34
2018-09-11T00:10:43.925Z,23.34
2018-09-11T00:11:16.200Z,23.35
2018-09-11T00:11:48.302Z,23.35
2018-09-11T00:12:20.522Z,23.33
2018-09-11T00:12:52.700Z,23.34
2018-09-11T00:13:24.831Z,23.34
2018-09-11T00:13:56.983Z,23.35
2018-09-11T00:14:29.161Z,23.33
2018-09-11T00:15:01.250Z,23.33
2018-09-11T00:15:33.389Z,23.35
2018-09-11T00:16:05.498Z,23.33
2018-09-11T00:16:37.630Z,23.34
2018-09-11T00:17:09.717Z,23.34
2018-09-11T00:17:41.832Z,23.34
2018-09-11T00:18:13.927Z,23.34
2018-09-11T00:18:46.055Z,23.34
2018-09-11T00:19:18.168Z,23.35
2018-09-11T00:19:50.323Z,23.34
2018-09-11T00:20:22.425Z,23.34
2018-09-11T00:20:54.581Z,23.34
2018-09-11T00:21:26.713Z,23.33
2018-09-11T00:21:58.868Z,23.34
2018-09-11T00:22:31.017Z,23.34
2018-09-11T00:23:03.175Z,23.33
2018-09-11T00:23:35.409Z,23.34
2018-09-11T00:24:07.523Z,23.32
2018-09-11T00:24:39.748Z,23.32
2018-09-11T00:25:11.887Z,23.32
2018-09-11T00:25:44.014Z,23.33
2018-09-11T00:26:16.153Z,23.32
2018-09-11T00:26:48.289Z,23.33
2018-09-11T00:27:20.761Z,23.33
2018-09-11T00:27:52.837Z,23.33
2018-09-11T00:28:25.120Z,23.34
2018-09-11T00:28:57.202Z,23.32
2018-09-11T00:29:29.362Z,23.33
2018-09-11T00:30:01.477Z,23.34
2018-09-11T00:30:33.577Z,23.34
2018-09-11T00:31:05.686Z,23.34
2018-09-11T00:31:37.883Z,23.33
2018-09-11T00:32:09.971Z,23.33
2018-09-11T00:32:42.248Z,23.33
2018-09-11T00:33:14.337Z,23.33
2018-09-11T00:33:46.611Z,23.32
2018-09-11T00:34:18.724Z,23.33
2018-09-11T00:34:50.846Z,23.32
2018-09-11T00:35:22.994Z,23.32
2018-09-11T00:35:55.141Z,23.33
2018-09-11T00:37:05.747Z,23.34
2018-09-11T00:37:38.133Z,23.34
2018-09-11T00:38:10.270Z,23.33
2018-09-11T00:38:42.395Z,23.34
2018-09-11T00:39:14.666Z,23.33
2018-09-11T00:39:46.790Z,23.34
2018-09-11T00:40:18.921Z,23.34
2018-09-11T00:40:51.134Z,23.34
2018-09-11T00:41:23.374Z,23.34
2018-09-11T00:41:55.497Z,23.33
2018-09-11T00:42:27.583Z,23.33
2018-09-11T00:42:59.981Z,23.32
2018-09-11T00:43:32.126Z,23.32
2018-09-11T00:44:04.576Z,23.33
2018-09-11T00:44:36.956Z,23.34
2018-09-11T00:45:09.091Z,23.34
2018-09-11T00:45:41.436Z,23.33
2018-09-11T00:46:13.758Z,23.33
2018-09-11T00:46:45.833Z,23.32
2018-09-11T00:47:18.106Z,23.34
2018-09-11T00:47:50.211Z,23.33
2018-09-11T00:48:22.342Z,23.33
2018-09-11T00:48:54.500Z,23.33
2018-09-11T00:49:26.718Z,23.32
2018-09-11T00:49:58.849Z,23.32
2018-09-11T00:50:31.263Z,23.32
2018-09-11T00:51:03.354Z,23.31
2018-09-11T00:51:35.508Z,23.32
2018-09-11T00:52:07.599Z,23.33
2018-09-11T00:52:39.738Z,23.32
2018-09-11T00:53:11.888Z,23.32
2018-09-11T00:53:44.099Z,23.32
2018-09-11T00:54:16.222Z,23.32
2018-09-11T00:54:48.323Z,23.32
2018-09-11T00:55:20.515Z,23.33
2018-09-11T00:55:52.684Z,23.34
2018-09-11T00:56:24.793Z,23.33
2018-09-11T00:56:56.924Z,23.34
2018-09-11T00:57:29.134Z,23.33
2018-09-11T00:58:01.338Z,23.32
2018-09-11T00:58:33.543Z,23.33
2018-09-11T00:59:05.831Z,23.33
2018-09-11T00:59:38.099Z,23.32
2018-09-11T01:00:10.239Z,23.32
2018-09-11T01:00:42.326Z,23.32
2018-09-11T01:01:14.467Z,23.32
2018-09-11T01:01:46.618Z,23.32
2018-09-11T01:02:18.705Z,23.31
2018-09-11T01:02:50.860Z,23.29
2018-09-11T01:03:22.960Z,23.31
2018-09-11T01:03:55.095Z,23.30
2018-09-11T01:04:27.253Z,23.31
2018-09-11T01:04:59.556Z,23.31
2018-09-11T01:05:31.665Z,23.31
2018-09-11T01:06:03.938Z,23.32
2018-09-11T01:06:36.061Z,23.32
2018-09-11T01:07:08.225Z,23.32
2018-09-11T01:07:40.388Z,23.32
2018-09-11T01:08:12.624Z,23.32
2018-09-11T01:08:45.014Z,23.32
2018-09-11T01:09:17.130Z,23.32
2018-09-11T01:09:49.259Z,23.31
2018-09-11T01:10:21.479Z,23.32
2018-09-11T01:10:53.936Z,23.33
2018-09-11T01:11:26.026Z,23.32
2018-09-11T01:11:58.247Z,23.31
2018-09-11T01:12:30.503Z,23.31
2018-09-11T01:13:02.654Z,23.33
2018-09-11T01:13:35.217Z,23.31
2018-09-11T01:14:07.330Z,23.31
2018-09-11T01:14:39.499Z,23.30
2018-09-11T01:15:11.581Z,23.30
2018-09-11T01:15:43.744Z,23.30
2018-09-11T01:16:15.883Z,23.31
2018-09-11T01:16:47.952Z,23.30
2018-09-11T01:17:20.077Z,23.30
2018-09-11T01:17:52.188Z,23.31
2018-09-11T01:18:24.297Z,23.31
2018-09-11T01:18:56.631Z,23.30
2018-09-11T01:19:28.894Z,23.30
2018-09-11T01:20:01.067Z,23.30
2018-09-11T01:20:33.218Z,23.31
2018-09-11T01:21:05.687Z,23.31
2018-09-11T01:21:37.848Z,23.30
2018-09-11T01:22:10.064Z,23.30
2018-09-11T01:22:42.165Z,23.31
2018-09-11T01:23:14.262Z,23.30
2018-09-11T01:23:46.392Z,23.30
2018-09-11T01:24:18.474Z,23.30
2018-09-11T01:24:50.655Z,23.30
2018-09-11T01:25:22.760Z,23.30
2018-09-11T01:25:54.883Z,23.30
2018-09-11T01:26:27.291Z,23.31
2018-09-11T01:26:59.424Z,23.31
2018-09-11T01:27:31.736Z,23.31
2018-09-11T01:28:03.830Z,23.31
2018-09-11T01:28:35.980Z,23.31
2018-09-11T01:29:08.093Z,23.29
2018-09-11T01:29:40.256Z,23.29
2018-09-11T01:30:12.367Z,23.30
2018-09-11T01:30:44.627Z,23.30
2018-09-11T01:31:16.882Z,23.31
2018-09-11T01:31:49.006Z,23.31
2018-09-11T01:32:21.126Z,23.31
2018-09-11T01:32:53.340Z,23.30
2018-09-11T01:33:25.522Z,23.30
2018-09-11T01:33:57.628Z,23.30
2018-09-11T01:34:29.723Z,23.29
2018-09-11T01:35:01.830Z,23.29
2018-09-11T01:35:33.936Z,23.28
2018-09-11T01:36:06.226Z,23.28
2018-09-11T01:36:38.366Z,23.28
2018-09-11T01:37:10.475Z,23.30
2018-09-11T01:37:42.612Z,23.29
2018-09-11T01:38:14.731Z,23.29
2018-09-11T01:38:46.854Z,23.28
2018-09-11T01:39:19.388Z,23.28
2018-09-11T01:39:51.766Z,23.29
2018-09-11T01:40:23.903Z,23.28
2018-09-11T01:40:56.405Z,23.29
2018-09-11T01:41:28.530Z,23.29
2018-09-11T01:42:00.637Z,23.29
2018-09-11T01:42:32.864Z,23.29
2018-09-11T01:43:05.010Z,23.28
2018-09-11T01:43:37.377Z,23.29
2018-09-11T01:44:09.506Z,23.29
2018-09-11T01:44:41.579Z,23.28
2018-09-11T01:45:13.708Z,23.28
2018-09-11T01:45:45.777Z,23.28
2018-09-11T01:46:18.010Z,23.28
2018-09-11T01:46:50.205Z,23.31
2018-09-11T01:47:22.510Z,23.30
2018-09-11T01:47:54.638Z,23.30
2018-09-11T01:48:26.769Z,23.29
2018-09-11T01:48:59.014Z,23.29
2018-09-11T01:49:31.181Z,23.29
2018-09-11T01:50:03.311Z,23.31
2018-09-11T01:50:35.462Z,23.29
2018-09-11T01:51:07.593Z,23.29
2018-09-11T01:51:39.713Z,23.29
2018-09-11T01:52:11.907Z,23.30
2018-09-11T01:52:44.027Z,23.29
2018-09-11T01:53:16.138Z,23.29
2018-09-11T01:53:48.373Z,23.29
2018-09-11T01:54:20.564Z,23.28
2018-09-11T01:54:52.678Z,23.29
2018-09-11T01:55:24.806Z,23.30
2018-09-11T01:55:56.895Z,23.28
2018-09-11T01:56:29.078Z,23.28
2018-09-11T01:57:01.194Z,23.29
2018-09-11T01:57:33.329Z,23.28
2018-09-11T01:58:05.458Z,23.28
2018-09-11T01:58:37.570Z,23.28
2018-09-11T01:59:09.697Z,23.28
2018-09-11T01:59:41.893Z,23.27
2018-09-11T02:00:14.119Z,23.28
2018-09-11T02:00:46.314Z,23.27
2018-09-11T02:01:18.418Z,23.28
2018-09-11T02:01:50.515Z,23.28
2018-09-11T02:02:22.690Z,23.28
2018-09-11T02:02:54.877Z,23.27
2018-09-11T02:03:27.219Z,23.27
2018-09-11T02:03:59.317Z,23.28
2018-09-11T02:04:31.465Z,23.27
2018-09-11T02:05:03.889Z,23.27
2018-09-11T02:05:35.998Z,23.28
2018-09-11T02:06:08.154Z,23.28
2018-09-11T02:06:40.277Z,23.28
2018-09-11T02:07:12.412Z,23.28
2018-09-11T02:07:44.478Z,23.27
2018-09-11T02:08:16.598Z,23.28
2018-09-11T02:08:48.690Z,23.27
2018-09-11T02:09:20.821Z,23.27
2018-09-11T02:09:52.902Z,23.27
2018-09-11T02:10:25.056Z,23.28
2018-09-11T02:10:57.177Z,23.28
2018-09-11T02:11:29.270Z,23.29
2018-09-11T02:12:01.385Z,23.28
2018-09-11T02:12:33.478Z,23.28
2018-09-11T02:13:05.584Z,23.28
2018-09-11T02:13:37.659Z,23.27
2018-09-11T02:14:09.914Z,23.27
2018-09-11T02:14:42.209Z,23.27
2018-09-11T02:15:14.325Z,23.27
2018-09-11T02:15:46.414Z,23.27
2018-09-11T02:16:18.530Z,23.27
2018-09-11T02:16:50.645Z,23.27
2018-09-11T02:17:22.785Z,23.28
2018-09-11T02:17:54.978Z,23.27
2018-09-11T02:18:27.340Z,23.28
2018-09-11T02:18:59.586Z,23.27
2018-09-11T02:19:31.802Z,23.27
2018-09-11T02:20:03.948Z,23.27
2018-09-11T02:20:36.330Z,23.26
2018-09-11T02:21:08.473Z,23.28
2018-09-11T02:21:40.653Z,23.27
2018-09-11T02:22:13.000Z,23.28
2018-09-11T02:22:45.115Z,23.27
2018-09-11T02:23:17.476Z,23.27
2018-09-11T02:23:49.600Z,23.28
2018-09-11T02:24:21.753Z,23.27
2018-09-11T02:24:54.259Z,23.27
2018-09-11T02:25:26.393Z,23.27
2018-09-11T02:25:58.514Z,23.26
2018-09-11T02:26:30.837Z,23.27
2018-09-11T02:27:03.054Z,23.25
2018-09-11T02:27:35.433Z,23.26
2018-09-11T02:28:07.530Z,23.26
2018-09-11T02:28:39.754Z,23.26
2018-09-11T02:29:11.838Z,23.27
2018-09-11T02:29:43.930Z,23.27
2018-09-11T02:30:16.236Z,23.26
2018-09-11T02:30:48.351Z,23.26
2018-09-11T02:31:20.457Z,23.27
2018-09-11T02:31:52.749Z,23.26
2018-09-11T02:32:24.870Z,23.28
2018-09-11T02:32:56.989Z,23.26
2018-09-11T02:33:29.086Z,23.26
2018-09-11T02:34:01.476Z,23.26
2018-09-11T02:34:33.609Z,23.26
2018-09-11T02:35:05.781Z,23.26
2018-09-11T02:35:37.955Z,23.26
2018-09-11T02:36:10.076Z,23.26
2018-09-11T02:36:42.205Z,23.25
2018-09-11T02:37:14.458Z,23.26
2018-09-11T02:37:46.571Z,23.25
2018-09-11T02:38:18.929Z,23.27
2018-09-11T02:38:51.047Z,23.28
2018-09-11T02:39:23.169Z,23.26
2018-09-11T02:39:55.274Z,23.26
2018-09-11T02:40:27.388Z,23.26
2018-09-11T02:40:59.491Z,23.25
2018-09-11T02:41:31.692Z,23.26
2018-09-11T02:42:03.817Z,23.27
2018-09-11T02:42:35.938Z,23.26
2018-09-11T02:43:08.053Z,23.25
2018-09-11T02:43:40.263Z,23.27
2018-09-11T02:44:12.349Z,23.26
2018-09-11T02:44:44.586Z,23.26
2018-09-11T02:45:16.689Z,23.27
2018-09-11T02:45:48.847Z,23.26
2018-09-11T02:46:21.036Z,23.26
2018-09-11T02:46:53.150Z,23.26
2018-09-11T02:47:25.485Z,23.25
2018-09-11T02:47:57.621Z,23.25
2018-09-11T02:48:29.799Z,23.25
2018-09-11T02:49:02.288Z,23.25
2018-09-11T02:49:34.563Z,23.25
2018-09-11T02:50:06.673Z,23.26
2018-09-11T02:50:38.793Z,23.25
2018-09-11T02:51:10.910Z,23.25
2018-09-11T02:51:43.164Z,23.25
2018-09-11T02:52:15.286Z,23.25
2018-09-11T02:52:47.467Z,23.24
2018-09-11T02:53:19.574Z,23.25
2018-09-11T02:53:51.805Z,23.24
2018-09-11T02:54:24.046Z,23.24
2018-09-11T02:54:56.282Z,23.24
2018-09-11T02:55:28.431Z,23.24
2018-09-11T02:56:00.728Z,23.25
2018-09-11T02:56:32.854Z,23.24
2018-09-11T02:57:04.943Z,23.24
2018-09-11T02:57:37.040Z,23.23
2018-09-11T02:58:09.137Z,23.24
2018-09-11T02:58:41.274Z,23.24
2018-09-11T02:59:13.373Z,23.23
2018-09-11T02:59:45.519Z,23.24
2018-09-11T03:00:17.726Z,23.23
2018-09-11T03:00:49.872Z,23.25
2018-09-11T03:01:22.019Z,23.23
2018-09-11T03:01:54.213Z,23.24
2018-09-11T03:02:26.609Z,23.23
2018-09-11T03:02:58.832Z,23.22
2018-09-11T03:03:30.928Z,23.23
2018-09-11T03:04:03.059Z,23.23
2018-09-11T03:04:35.139Z,23.23
2018-09-11T03:05:07.295Z,23.23
2018-09-11T03:05:39.436Z,23.23
2018-09-11T03:06:11.727Z,23.22
2018-09-11T03:06:43.842Z,23.23
2018-09-11T03:07:16.038Z,23.23
2018-09-11T03:07:48.131Z,23.24
2018-09-11T03:08:20.254Z,23.23
2018-09-11T03:08:52.481Z,23.24
2018-09-11T03:09:24.740Z,23.24
2018-09-11T03:09:56.823Z,23.24
2018-09-11T03:10:28.957Z,23.23
2018-09-11T03:11:01.071Z,23.24
2018-09-11T03:11:33.296Z,23.25
2018-09-11T03:12:05.445Z,23.23
2018-09-11T03:12:37.809Z,23.23
2018-09-11T03:13:09.912Z,23.23
2018-09-11T03:13:42.070Z,23.23
2018-09-11T03:14:14.157Z,23.23
2018-09-11T03:14:46.277Z,23.22
2018-09-11T03:15:18.361Z,23.22
2018-09-11T03:15:50.449Z,23.22
2018-09-11T03:16:22.584Z,23.23
2018-09-11T03:16:54.729Z,23.22
2018-09-11T03:17:26.890Z,23.23
2018-09-11T03:17:59.011Z,23.23
2018-09-11T03:18:31.151Z,23.22
2018-09-11T03:19:03.333Z,23.23
2018-09-11T03:19:35.474Z,23.23
2018-09-11T03:20:07.862Z,23.22
2018-09-11T03:20:40.016Z,23.22
2018-09-11T03:21:12.109Z,23.23
2018-09-11T03:21:44.880Z,23.23
2018-09-11T03:22:17.118Z,23.23
2018-09-11T03:22:49.230Z,23.22
2018-09-11T03:23:21.505Z,23.21
2018-09-11T03:23:53.751Z,23.22
2018-09-11T03:24:25.994Z,23.22
2018-09-11T03:24:58.116Z,23.22
2018-09-11T03:25:30.214Z,23.21
2018-09-11T03:26:02.354Z,23.21
2018-09-11T03:26:34.465Z,23.20
2018-09-11T03:27:06.598Z,23.20
2018-09-11T03:27:38.715Z,23.20
2018-09-11T03:28:10.829Z,23.20
2018-09-11T03:28:42.938Z,23.20
2018-09-11T03:29:15.196Z,23.22
2018-09-11T03:29:47.284Z,23.21
2018-09-11T03:30:19.407Z,23.21
2018-09-11T03:30:51.616Z,23.21
2018-09-11T03:31:23.765Z,23.20
2018-09-11T03:31:56.000Z,23.21
2018-09-11T03:32:28.084Z,23.22
2018-09-11T03:33:00.270Z,23.21
2018-09-11T03:33:32.385Z,23.21
2018-09-11T03:34:04.509Z,23.20
2018-09-11T03:34:36.621Z,23.20
2018-09-11T03:35:08.785Z,23.20
2018-09-11T03:35:40.878Z,23.20
2018-09-11T03:36:12.982Z,23.20
2018-09-11T03:36:45.095Z,23.20
2018-09-11T03:37:17.280Z,23.19
2018-09-11T03:37:49.352Z,23.19
2018-09-11T03:38:21.500Z,23.20
2018-09-11T03:38:53.668Z,23.21
2018-09-11T03:39:25.951Z,23.20
2018-09-11T03:39:58.014Z,23.20
2018-09-11T03:40:30.176Z,23.20
2018-09-11T03:41:02.337Z,23.20
2018-09-11T03:41:34.433Z,23.21
2018-09-11T03:42:06.516Z,23.20
2018-09-11T03:42:38.876Z,23.21
2018-09-11T03:43:11.010Z,23.20
2018-09-11T03:43:43.154Z,23.20
2018-09-11T03:44:15.372Z,23.21
2018-09-11T03:44:47.431Z,23.20
2018-09-11T03:45:19.692Z,23.20
2018-09-11T03:45:51.842Z,23.20
2018-09-11T03:46:24.003Z,23.20
2018-09-11T03:46:56.221Z,23.20
2018-09-11T03:47:28.310Z,23.20
2018-09-11T03:48:00.632Z,23.19
2018-09-11T03:48:32.875Z,23.21
2018-09-11T03:49:04.994Z,23.19
2018-09-11T03:49:37.137Z,23.20
2018-09-11T03:50:09.370Z,23.20
2018-09-11T03:50:41.514Z,23.20
2018-09-11T03:51:13.651Z,23.19
2018-09-11T03:51:45.886Z,23.20
2018-09-11T03:52:18.183Z,23.20
2018-09-11T03:52:50.405Z,23.19
2018-09-11T03:53:22.527Z,23.19
2018-09-11T03:53:54.677Z,23.19
2018-09-11T03:54:26.774Z,23.20
2018-09-11T03:54:58.889Z,23.19
2018-09-11T03:55:30.970Z,23.19
2018-09-11T03:56:03.097Z,23.18
2018-09-11T03:56:35.319Z,23.20
2018-09-11T03:57:07.402Z,23.20
2018-09-11T03:57:39.732Z,23.19
2018-09-11T03:58:11.958Z,23.19
2018-09-11T03:58:44.059Z,23.21
2018-09-11T03:59:16.245Z,23.20
2018-09-11T03:59:48.348Z,23.20
2018-09-11T04:00:20.561Z,23.21
2018-09-11T04:00:52.677Z,23.21
2018-09-11T04:01:24.934Z,23.21
2018-09-11T04:01:57.198Z,23.20
2018-09-11T04:02:29.476Z,23.20
2018-09-11T04:03:01.687Z,23.19
2018-09-11T04:03:33.748Z,23.19
2018-09-11T04:04:05.862Z,23.19
2018-09-11T04:04:38.009Z,23.19
2018-09-11T04:05:10.386Z,23.20
2018-09-11T04:05:42.532Z,23.20
2018-09-11T04:06:14.628Z,23.19
2018-09-11T04:06:46.711Z,23.19
2018-09-11T04:07:18.939Z,23.19
2018-09-11T04:07:51.073Z,23.17
2018-09-11T04:08:23.178Z,23.18
2018-09-11T04:08:55.360Z,23.18
2018-09-11T04:09:27.470Z,23.17
2018-09-11T04:09:59.742Z,23.18
2018-09-11T04:10:31.886Z,23.18
2018-09-11T04:11:03.971Z,23.18
2018-09-11T04:11:36.074Z,23.19
2018-09-11T04:12:08.257Z,23.17
2018-09-11T04:12:40.406Z,23.18
2018-09-11T04:13:12.514Z,23.18
2018-09-11T04:13:44.601Z,23.18
2018-09-11T04:14:16.750Z,23.18
2018-09-11T04:14:48.848Z,23.19
2018-09-11T04:15:21.078Z,23.18
2018-09-11T04:15:53.174Z,23.17
2018-09-11T04:16:25.299Z,23.18
2018-09-11T04:16:57.646Z,23.17
2018-09-11T04:17:29.797Z,23.17
2018-09-11T04:18:01.923Z,23.19
2018-09-11T04:18:34.310Z,23.19
2018-09-11T04:19:06.467Z,23.18
2018-09-11T04:19:38.552Z,23.18
2018-09-11T04:20:10.733Z,23.18
2018-09-11T04:20:42.871Z,23.17
2018-09-11T04:21:14.996Z,23.18
2018-09-11T04:21:47.128Z,23.17
2018-09-11T04:22:19.218Z,23.19
2018-09-11T04:22:51.348Z,23.18
2018-09-11T04:23:23.453Z,23.18
2018-09-11T04:23:55.567Z,23.18
2018-09-11T04:24:27.905Z,23.17
2018-09-11T04:25:00.226Z,23.16
2018-09-11T04:25:32.385Z,23.16
2018-09-11T04:26:04.502Z,23.16
2018-09-11T04:26:36.586Z,23.16
2018-09-11T04:27:08.770Z,23.15
2018-09-11T04:27:40.850Z,23.16
2018-09-11T04:28:13.183Z,23.16
2018-09-11T04:28:45.457Z,23.17
2018-09-11T04:29:17.563Z,23.17
2018-09-11T04:29:49.818Z,23.18
2018-09-11T04:30:21.923Z,23.18
2018-09-11T04:30:54.344Z,23.17
2018-09-11T04:31:26.553Z,23.17
2018-09-11T04:31:58.773Z,23.17
2018-09-11T04:32:30.877Z,23.17
2018-09-11T04:33:02.986Z,23.16
2018-09-11T04:33:35.233Z,23.15
2018-09-11T04:34:07.520Z,23.15
2018-09-11T04:34:39.652Z,23.15
2018-09-11T04:35:11.795Z,23.15
2018-09-11T04:35:43.944Z,23.16
2018-09-11T04:36:16.181Z,23.16
2018-09-11T04:36:48.329Z,23.16
2018-09-11T04:37:20.445Z,23.15
2018-09-11T04:37:52.776Z,23.15
2018-09-11T04:38:24.903Z,23.15
2018-09-11T04:38:57.001Z,23.16
2018-09-11T04:39:29.121Z,23.17
2018-09-11T04:40:01.411Z,23.16
2018-09-11T04:40:33.529Z,23.16
2018-09-11T04:41:05.669Z,23.16
2018-09-11T04:41:37.765Z,23.16
2018-09-11T04:42:10.078Z,23.16
2018-09-11T04:42:42.334Z,23.15
2018-09-11T04:43:14.434Z,23.14
2018-09-11T04:43:46.563Z,23.16
2018-09-11T04:44:18.689Z,23.16
2018-09-11T04:44:50.934Z,23.15
2018-09-11T04:45:23.084Z,23.15
2018-09-11T04:45:55.312Z,23.16
2018-09-11T04:46:27.602Z,23.15
2018-09-11T04:46:59.700Z,23.16
2018-09-11T04:47:31.802Z,23.17
2018-09-11T04:48:04.110Z,23.16
2018-09-11T04:48:36.236Z,23.15
2018-09-11T04:49:08.344Z,23.16
2018-09-11T04:49:40.628Z,23.16
2018-09-11T04:50:12.794Z,23.15
2018-09-11T04:50:44.961Z,23.14
2018-09-11T04:51:17.087Z,23.15
2018-09-11T04:51:49.187Z,23.14
2018-09-11T04:52:21.326Z,23.14
2018-09-11T04:52:53.452Z,23.15
2018-09-11T04:53:25.549Z,23.17
2018-09-11T04:53:57.715Z,23.17
2018-09-11T04:54:29.811Z,23.17
2018-09-11T04:55:01.911Z,23.16
2018-09-11T04:55:34.091Z,23.14
2018-09-11T04:56:06.283Z,23.13
2018-09-11T04:56:38.288Z,23.14
2018-09-11T04:57:10.439Z,23.14
2018-09-11T04:57:42.569Z,23.15
2018-09-11T04:59:29.721Z,23.14
2018-09-11T05:00:01.862Z,23.14
2018-09-11T05:00:34.062Z,23.11
2018-09-11T05:01:06.250Z,23.10
2018-09-11T05:01:38.559Z,23.11
2018-09-11T05:02:10.841Z,23.12
2018-09-11T05:02:42.967Z,23.13
2018-09-11T05:03:15.129Z,23.13
2018-09-11T05:03:47.252Z,23.11
2018-09-11T05:04:19.413Z,23.11
2018-09-11T05:04:51.543Z,23.11
2018-09-11T05:05:23.727Z,23.12
2018-09-11T05:05:55.829Z,23.13
2018-09-11T05:06:27.937Z,23.11
2018-09-11T05:07:00.112Z,23.11
2018-09-11T05:07:32.203Z,23.10
2018-09-11T05:08:04.737Z,23.09
2018-09-11T05:08:36.866Z,23.13
2018-09-11T05:09:09.154Z,23.13
2018-09-11T05:09:41.454Z,23.14
2018-09-11T05:10:13.674Z,23.14
2018-09-11T05:10:45.768Z,23.15
2018-09-11T05:11:17.861Z,23.16
2018-09-11T05:11:50.161Z,23.17
2018-09-11T05:12:22.277Z,23.19
2018-09-11T05:12:54.422Z,23.18
2018-09-11T05:13:27.285Z,23.17
2018-09-11T05:13:59.403Z,23.19
2018-09-11T05:14:31.636Z,23.18
2018-09-11T05:15:03.733Z,23.18
2018-09-11T05:15:35.949Z,23.18
2018-09-11T05:16:08.097Z,23.18
2018-09-11T05:16:40.226Z,23.17
2018-09-11T05:17:12.351Z,23.18
2018-09-11T05:17:44.612Z,23.18
2018-09-11T05:18:16.712Z,23.17
2018-09-11T05:18:48.809Z,23.17
2018-09-11T05:19:20.994Z,23.17
2018-09-11T05:19:53.277Z,23.18
2018-09-11T05:20:25.506Z,23.16
2018-09-11T05:20:57.606Z,23.18
2018-09-11T05:21:29.707Z,23.18
2018-09-11T05:22:02.098Z,23.17
2018-09-11T05:22:34.220Z,23.17
2018-09-11T05:23:06.718Z,23.16
2018-09-11T05:23:38.830Z,23.16
2018-09-11T05:24:11.007Z,23.15
2018-09-11T05:24:43.094Z,23.15
2018-09-11T05:25:15.397Z,23.16
2018-09-11T05:25:47.559Z,23.16
2018-09-11T05:26:19.692Z,23.16
2018-09-11T05:26:51.805Z,23.16
2018-09-11T05:27:23.963Z,23.15
2018-09-11T05:27:56.086Z,23.16
2018-09-11T05:28:28.254Z,23.15
2018-09-11T05:29:00.358Z,23.16
2018-09-11T05:29:32.488Z,23.17
2018-09-11T05:30:04.754Z,23.17
2018-09-11T05:30:36.915Z,23.16
2018-09-11T05:31:09.060Z,23.16
2018-09-11T05:31:41.229Z,23.15
2018-09-11T05:32:13.359Z,23.15
2018-09-11T05:32:45.486Z,23.14
2018-09-11T05:33:17.625Z,23.15
2018-09-11T05:33:49.746Z,23.17
2018-09-11T05:34:21.869Z,23.20
2018-09-11T05:34:54.002Z,23.20
2018-09-11T05:35:26.149Z,23.19
2018-09-11T05:35:58.317Z,23.20
2018-09-11T05:36:30.468Z,23.17
2018-09-11T05:37:02.680Z,23.18
2018-09-11T05:37:34.872Z,23.18
2018-09-11T05:38:07.046Z,23.18
2018-09-11T05:38:39.193Z,23.17
2018-09-11T05:39:11.491Z,23.17
2018-09-11T05:39:43.517Z,23.16
2018-09-11T05:40:15.617Z,23.18
2018-09-11T05:40:47.898Z,23.17
2018-09-11T05:41:20.053Z,23.17
2018-09-11T05:41:52.182Z,23.17
2018-09-11T05:42:24.284Z,23.17
2018-09-11T05:42:56.485Z,23.18
2018-09-11T05:43:28.690Z,23.18
2018-09-11T05:44:00.928Z,23.17
2018-09-11T05:44:33.150Z,23.17
2018-09-11T05:45:05.309Z,23.17
2018-09-11T05:45:37.423Z,23.17
2018-09-11T05:46:09.576Z,23.16
2018-09-11T05:46:41.963Z,23.17
2018-09-11T05:47:14.183Z,23.17
2018-09-11T05:47:46.311Z,23.18
2018-09-11T05:48:18.462Z,23.17
2018-09-11T05:48:50.548Z,23.18
2018-09-11T05:49:22.700Z,23.18
2018-09-11T05:49:54.812Z,23.17
2018-09-11T05:50:26.971Z,23.16
2018-09-11T05:50:59.063Z,23.17
2018-09-11T05:51:31.284Z,23.17
2018-09-11T05:52:03.505Z,23.17
2018-09-11T05:52:35.614Z,23.18
2018-09-11T05:53:07.745Z,23.18
2018-09-11T05:53:39.983Z,23.18
2018-09-11T05:54:12.111Z,23.19
2018-09-11T05:54:44.225Z,23.16
2018-09-11T05:55:16.347Z,23.16
2018-09-11T05:55:48.516Z,23.15
2018-09-11T05:56:20.656Z,23.16
2018-09-11T05:56:52.874Z,23.16
2018-09-11T05:57:24.999Z,23.16
2018-09-11T05:57:57.180Z,23.16
2018-09-11T05:58:29.424Z,23.17
2018-09-11T05:59:01.566Z,23.17
2018-09-11T05:59:33.685Z,23.18
2018-09-11T06:00:05.803Z,23.18
2018-09-11T06:00:37.863Z,23.17
2018-09-11T06:01:10.161Z,23.17
2018-09-11T06:01:42.293Z,23.19
2018-09-11T06:02:14.388Z,23.16
2018-09-11T06:02:46.663Z,23.17
2018-09-11T06:03:18.766Z,23.16
2018-09-11T06:03:50.935Z,23.17
2018-09-11T06:04:23.041Z,23.16
2018-09-11T06:04:55.239Z,23.17
2018-09-11T06:05:27.422Z,23.17
2018-09-11T06:05:59.527Z,23.17
2018-09-11T06:06:31.767Z,23.18
2018-09-11T06:07:03.897Z,23.18
2018-09-11T06:07:36.030Z,23.18
2018-09-11T06:08:08.294Z,23.18
2018-09-11T06:08:40.420Z,23.18
2018-09-11T06:09:12.480Z,23.19
2018-09-11T06:09:44.621Z,23.18
2018-09-11T06:10:16.884Z,23.18
2018-09-11T06:10:49.032Z,23.18
2018-09-11T06:11:21.202Z,23.18
2018-09-11T06:11:53.289Z,23.18
2018-09-11T06:12:25.502Z,23.18
2018-09-11T06:12:57.581Z,23.19
2018-09-11T06:13:29.666Z,23.18
2018-09-11T06:14:01.750Z,23.19
2018-09-11T06:14:34.038Z,23.20
2018-09-11T06:15:06.241Z,23.19
2018-09-11T06:15:38.363Z,23.18
2018-09-11T06:16:10.525Z,23.19
2018-09-11T06:16:42.594Z,23.19
2018-09-11T06:17:14.767Z,23.19
2018-09-11T06:17:46.840Z,23.19
2018-09-11T06:18:18.977Z,23.18
2018-09-11T06:18:51.210Z,23.18
2018-09-11T06:19:23.447Z,23.18
2018-09-11T06:19:55.541Z,23.18
2018-09-11T06:20:27.705Z,23.19
2018-09-11T06:20:59.789Z,23.18
2018-09-11T06:21:31.877Z,23.19
2018-09-11T06:22:04.013Z,23.19
2018-09-11T06:22:36.120Z,23.21
2018-09-11T06:23:08.270Z,23.19
2018-09-11T06:23:40.431Z,23.20
2018-09-11T06:24:12.555Z,23.20
2018-09-11T06:24:44.665Z,23.20
2018-09-11T06:25:16.794Z,23.20
2018-09-11T06:25:48.932Z,23.20
2018-09-11T06:26:21.063Z,23.20
2018-09-11T06:26:53.147Z,23.21
2018-09-11T06:27:25.289Z,23.21
2018-09-11T06:27:57.429Z,23.20
2018-09-11T06:28:29.490Z,23.20
2018-09-11T06:29:01.789Z,23.21
2018-09-11T06:29:33.892Z,23.21
2018-09-11T06:30:06.041Z,23.21
2018-09-11T06:30:38.202Z,23.22
2018-09-11T06:31:10.548Z,23.21
2018-09-11T06:31:42.701Z,23.22
2018-09-11T06:32:14.957Z,23.21
2018-09-11T06:32:47.075Z,23.23
2018-09-11T06:33:19.162Z,23.23
2018-09-11T06:33:51.335Z,23.22
2018-09-11T06:34:23.437Z,23.22
2018-09-11T06:34:55.522Z,23.22
2018-09-11T06:35:27.674Z,23.22
2018-09-11T06:35:59.789Z,23.22
2018-09-11T06:36:32.007Z,23.21
2018-09-11T06:37:04.323Z,23.21
2018-09-11T06:37:36.467Z,23.21
2018-09-11T06:38:08.614Z,23.22
2018-09-11T06:38:40.808Z,23.23
2018-09-11T06:39:12.975Z,23.22
2018-09-11T06:39:45.162Z,23.22
2018-09-11T06:40:17.285Z,23.23
2018-09-11T06:40:49.659Z,23.22
2018-09-11T06:41:21.916Z,23.22
2018-09-11T06:41:54.577Z,23.22
2018-09-11T06:42:26.697Z,23.22
2018-09-11T06:42:58.836Z,23.21
2018-09-11T06:43:31.043Z,23.22
2018-09-11T06:44:03.153Z,23.22
2018-09-11T06:44:35.299Z,23.22
2018-09-11T06:45:07.464Z,23.23
2018-09-11T06:45:39.545Z,23.23
2018-09-11T06:46:11.633Z,23.23
2018-09-11T06:46:43.833Z,23.23
2018-09-11T06:47:16.088Z,23.24
2018-09-11T06:47:48.268Z,23.23
2018-09-11T06:48:20.371Z,23.23
2018-09-11T06:48:52.787Z,23.23
2018-09-11T06:49:25.247Z,23.23
2018-09-11T06:49:57.393Z,23.24
2018-09-11T06:50:29.608Z,23.24
2018-09-11T06:51:01.876Z,23.24
2018-09-11T06:51:34.017Z,23.25
2018-09-11T06:52:06.140Z,23.24
2018-09-11T06:52:38.377Z,23.25
2018-09-11T06:53:10.509Z,23.25
2018-09-11T06:53:42.753Z,23.25
2018-09-11T06:54:14.877Z,23.24
2018-09-11T06:54:47.040Z,23.23
2018-09-11T06:55:19.133Z,23.23
2018-09-11T06:55:51.376Z,23.25